Time;durP1;ratioP1;P1;durP2;ratioP2;P2;SDS_P1;SDS_P2;PMS_P1;PMS_P2;Temp;Humidity;BMP_temperature;BMP_pressure;BME280_temperature;BME280_humidity;BME280_pressure;Samples;Min_cycle;Max_cycle;Signal;HPM_P1;HPM_P2
2022/07/21 00:02:06;;;;;;;7.37;4.43;;;;;;;19.48;74.90;101670.09;5053926;28;20083;-89
2022/07/21 00:04:32;;;;;;;5.50;4.10;;;;;;;19.45;75.74;101673.72;5053315;28;20075;-88
2022/07/21 00:06:57;;;;;;;6.73;4.50;;;;;;;19.40;75.34;101673.91;5053681;28;20021;-88
2022/07/21 00:09:22;;;;;;;4.90;3.63;;;;;;;19.37;73.49;101667.88;5054133;28;20092;-89
2022/07/21 00:11:48;;;;;;;4.30;3.50;;;;;;;19.38;75.79;101669.59;5053626;28;20033;-89
2022/07/21 00:14:14;;;;;;;5.00;3.40;;;;;;;19.34;76.89;101671.50;5053932;28;20024;-89
2022/07/21 00:16:41;;;;;;;5.03;3.63;;;;;;;19.30;73.93;101669.94;5053804;28;20051;-89
2022/07/21 00:19:07;;;;;;;4.35;3.40;;;;;;;19.28;74.31;101675.22;5053122;28;20457;-89
2022/07/21 00:21:32;;;;;;;4.63;3.47;;;;;;;19.27;73.82;101678.78;5053714;28;20067;-89
2022/07/21 00:23:58;;;;;;;5.07;3.47;;;;;;;19.24;75.11;101676.28;5053114;28;20295;-88
2022/07/21 00:26:23;;;;;;;4.20;3.27;;;;;;;19.23;76.91;101678.94;5053507;28;20024;-89
2022/07/21 00:28:49;;;;;;;4.33;3.33;;;;;;;19.19;74.46;101680.00;5053323;28;20052;-90
2022/07/21 00:31:15;;;;;;;4.67;3.30;;;;;;;19.15;74.28;101679.25;5053694;28;20449;-89
2022/07/21 00:33:40;;;;;;;5.72;3.58;;;;;;;19.17;77.35;101677.41;5053300;28;20127;-88
2022/07/21 00:36:05;;;;;;;4.60;3.50;;;;;;;19.14;74.99;101678.41;5053069;28;20016;-88
2022/07/21 00:38:31;;;;;;;4.37;3.40;;;;;;;19.15;75.29;101679.25;5053364;28;20035;-88
2022/07/21 00:40:56;;;;;;;5.60;3.87;;;;;;;19.13;72.94;101678.47;5052908;28;20013;-88
2022/07/21 00:43:21;;;;;;;4.73;3.70;;;;;;;19.10;73.99;101675.94;5053030;28;20025;-88
2022/07/21 00:45:47;;;;;;;4.80;3.90;;;;;;;19.06;76.16;101679.59;5053364;28;20117;-89
2022/07/21 00:48:12;;;;;;;5.80;3.93;;;;;;;19.04;74.12;101670.91;5053076;28;20375;-89
2022/07/21 00:50:38;;;;;;;5.27;3.70;;;;;;;19.03;75.41;101677.94;5053598;28;20031;-89
2022/07/21 00:53:03;;;;;;;6.20;4.10;;;;;;;19.00;75.39;101674.56;5052863;28;20389;-90
2022/07/21 00:55:29;;;;;;;4.83;3.60;;;;;;;18.96;78.38;101679.94;5054624;28;20033;-89
2022/07/21 00:57:54;;;;;;;5.00;3.65;;;;;;;18.93;76.11;101682.69;5059957;28;20469;-89
2022/07/21 01:00:23;;;;;;;5.60;3.80;;;;;;;18.91;76.17;101675.75;5059329;28;20032;-89
2022/07/21 01:02:48;;;;;;;4.38;3.53;;;;;;;18.90;76.99;101674.03;5045226;28;20022;-89
2022/07/21 01:05:15;;;;;;;4.03;3.33;;;;;;;18.88;75.27;101671.47;5039678;28;20036;-89
2022/07/21 01:07:46;;;;;;;3.67;2.90;;;;;;;18.88;74.92;101662.69;5039347;28;20040;-88
2022/07/21 01:10:13;;;;;;;3.92;2.90;;;;;;;18.86;74.79;101654.88;5039550;28;20033;-88
2022/07/21 01:12:40;;;;;;;3.05;2.50;;;;;;;18.85;74.74;101653.16;5058712;28;20017;-88
2022/07/21 01:15:06;;;;;;;;;;;;;;;18.85;74.67;101652.31;5059076;28;20090;-88
2022/07/21 01:17:31;;;;;;;3.45;2.72;;;;;;;18.82;76.66;101654.13;5059595;28;19955;-89
2022/07/21 01:19:57;;;;;;;5.10;3.80;;;;;;;18.79;75.61;101653.41;5059782;28;20029;-88
2022/07/21 01:22:22;;;;;;;4.10;3.27;;;;;;;18.76;75.40;101645.63;5058970;28;20380;-89
2022/07/21 01:24:47;;;;;;;3.53;2.87;;;;;;;18.73;75.50;101648.34;5059117;28;20091;-88
2022/07/21 01:27:12;;;;;;;3.33;2.90;;;;;;;18.71;75.22;101647.53;5059235;28;20388;-88
2022/07/21 01:29:38;;;;;;;3.20;2.63;;;;;;;18.71;75.08;101644.91;5054625;28;20036;-88
2022/07/21 01:32:04;;;;;;;3.07;2.60;;;;;;;18.68;75.42;101638.88;5039331;28;20025;-89
2022/07/21 01:34:29;;;;;;;3.53;3.00;;;;;;;18.67;75.05;101646.81;5039682;28;20029;-88
2022/07/21 01:36:54;;;;;;;5.27;3.10;;;;;;;18.65;75.08;101656.50;5039280;28;20017;-88
2022/07/21 01:42:04;;;;;;;3.50;2.95;;;;;;;18.60;78.78;101648.78;5039132;28;20040;-88
2022/07/21 01:44:29;;;;;;;4.37;2.87;;;;;;;18.59;76.81;101660.22;5039360;28;20466;-88
2022/07/21 01:46:54;;;;;;;4.40;3.37;;;;;;;18.58;78.30;101657.66;5039391;28;20026;-88
2022/07/21 01:49:20;;;;;;;4.47;3.27;;;;;;;18.58;77.11;101649.78;5039001;28;20135;-88
2022/07/21 01:51:46;;;;;;;5.07;3.42;;;;;;;18.57;77.66;101648.94;5039808;28;20071;-89
2022/07/21 01:54:12;;;;;;;5.03;3.50;;;;;;;18.55;78.46;101652.50;5039798;28;20087;-89
2022/07/21 01:56:38;;;;;;;5.20;3.78;;;;;;;18.50;78.09;101645.66;5039062;28;20049;-89
2022/07/21 01:59:04;;;;;;;5.60;4.00;;;;;;;18.50;80.51;101656.19;5039202;28;20112;-89
2022/07/21 02:01:31;;;;;;;4.55;3.50;;;;;;;18.50;78.23;101652.66;5039903;28;20036;-89
2022/07/21 02:03:57;;;;;;;;;;;;;;;18.51;80.87;101651.75;5038524;28;20064;-89
2022/07/21 02:06:23;;;;;;;5.18;3.50;;;;;;;18.51;77.81;101650.00;5055736;28;19913;-89
2022/07/21 02:08:51;;;;;;;5.50;3.50;;;;;;;18.51;78.36;101655.25;5055437;28;20557;-89
2022/07/21 02:11:17;;;;;;;4.78;3.45;;;;;;;18.50;77.99;101664.06;5056232;28;20052;-89
2022/07/21 02:13:43;;;;;;;4.53;3.50;;;;;;;18.52;80.65;101662.22;5056537;28;20025;-88
2022/07/21 02:16:08;;;;;;;5.60;3.83;;;;;;;18.51;78.54;101657.00;5056007;28;20120;-88
2022/07/21 02:18:34;;;;;;;5.10;3.30;;;;;;;18.50;77.64;101656.19;5055733;28;20069;-89
2022/07/21 02:21:00;;;;;;;4.93;3.70;;;;;;;18.51;78.13;101654.38;5055774;28;20029;-89
2022/07/21 02:23:26;;;;;;;3.92;3.10;;;;;;;18.51;79.23;101649.13;5056178;28;20086;-88
2022/07/21 02:25:52;;;;;;;4.07;3.10;;;;;;;18.50;79.44;101647.41;5055717;28;20035;-89
2022/07/21 02:28:18;;;;;;;3.65;3.05;;;;;;;18.50;78.02;101639.53;5056173;28;20082;-89
2022/07/21 02:30:43;;;;;;;4.28;3.20;;;;;;;18.51;76.81;101649.13;5056084;28;20029;-89
2022/07/21 02:33:09;;;;;;;6.93;3.97;;;;;;;18.50;80.62;101640.41;5055432;28;20036;-89
2022/07/21 02:35:34;;;;;;;5.10;3.57;;;;;;;18.49;78.34;101633.44;5055928;28;20032;-88
2022/07/21 02:37:59;;;;;;;3.97;3.10;;;;;;;18.53;76.60;101635.00;5055679;28;20120;-89
2022/07/21 02:40:26;;;;;;;8.17;5.30;;;;;;;18.47;80.08;101635.25;5055550;28;20373;-89
2022/07/21 02:42:51;;;;;;;6.85;4.40;;;;;;;18.45;79.73;101647.56;5055219;28;20525;-88
2022/07/21 02:45:16;;;;;;;7.20;4.40;;;;;;;18.45;79.84;101652.84;5054863;28;20111;-89
2022/07/21 02:47:58;;;;;;;7.97;4.80;;;;;;;18.43;80.64;101645.94;5055144;28;20060;-88
2022/07/21 02:50:25;;;;;;;6.97;4.25;;;;;;;18.44;78.04;101643.22;5055726;28;20028;-88
2022/07/21 02:52:54;;;;;;;4.63;3.53;;;;;;;18.47;78.03;101640.50;5046643;28;20441;-88
2022/07/21 02:55:19;;;;;;;3.80;3.20;;;;;;;18.51;77.75;101628.09;5034605;28;20052;-89
2022/07/21 02:57:45;;;;;;;3.77;3.20;;;;;;;18.57;78.78;101622.63;5053018;28;20469;-88
2022/07/21 03:00:10;;;;;;;4.13;3.00;;;;;;;18.59;79.92;101625.19;5054842;28;20025;-88
2022/07/21 03:02:36;;;;;;;4.20;3.23;;;;;;;18.57;78.20;101633.16;5055461;28;20405;-88
2022/07/21 03:05:02;;;;;;;6.50;4.30;;;;;;;18.58;79.96;101637.47;5054908;28;20471;-88
2022/07/21 03:07:27;;;;;;;5.93;3.70;;;;;;;18.57;79.30;101634.91;5055046;28;20036;-88
2022/07/21 03:09:52;;;;;;;4.23;3.20;;;;;;;18.57;78.51;101633.16;5054687;28;20369;-88
2022/07/21 03:12:18;;;;;;;4.77;3.30;;;;;;;18.59;78.53;101626.03;5055143;28;20116;-88
2022/07/21 03:14:43;;;;;;;6.07;3.80;;;;;;;18.56;78.84;101631.44;5055159;28;20024;-89
2022/07/21 03:17:08;;;;;;;5.13;3.60;;;;;;;18.53;79.35;101627.13;5054521;28;20372;-88
2022/07/21 03:19:34;;;;;;;6.87;4.10;;;;;;;18.52;79.18;101620.16;5053810;28;20399;-88
2022/07/21 03:21:59;;;;;;;4.50;3.60;;;;;;;18.52;78.68;101622.78;5053297;28;20075;-88
2022/07/21 03:24:24;;;;;;;6.03;4.00;;;;;;;18.51;78.37;101626.34;5034453;28;20017;-88
2022/07/21 03:26:50;;;;;;;5.47;3.73;;;;;;;18.52;80.38;101630.66;5048146;28;20099;-88
2022/07/21 03:29:15;;;;;;;6.50;4.23;;;;;;;18.51;80.16;101628.09;5054623;28;20029;-89
2022/07/21 03:31:41;;;;;;;7.00;4.33;;;;;;;18.49;80.64;101627.28;5054798;28;20020;-88
2022/07/21 03:34:06;;;;;;;6.07;4.10;;;;;;;18.48;79.02;101629.09;5054324;28;20048;-88
2022/07/21 03:36:31;;;;;;;6.73;4.23;;;;;;;18.49;80.02;101628.16;5054300;28;20029;-89
2022/07/21 03:38:56;;;;;;;4.87;3.70;;;;;;;18.50;79.50;101627.25;5054147;28;20396;-88
2022/07/21 03:41:22;;;;;;;6.00;4.00;;;;;;;18.48;79.29;101623.81;5054342;28;20047;-88
2022/07/21 03:43:47;;;;;;;5.53;3.90;;;;;;;18.49;79.10;101625.53;5054195;28;20032;-88
2022/07/21 03:46:13;;;;;;;4.97;3.57;;;;;;;18.48;79.01;101628.19;5054083;28;20025;-88
2022/07/21 03:48:39;;;;;;;6.03;4.40;;;;;;;18.48;79.29;101628.19;5053592;28;20095;-88
2022/07/21 03:51:04;;;;;;;5.38;3.35;;;;;;;18.48;79.24;101630.84;5053828;28;20531;-88
2022/07/21 03:53:30;;;;;;;4.93;3.50;;;;;;;18.48;80.47;101633.47;5054149;28;20021;-88
2022/07/21 03:55:56;;;;;;;3.83;3.10;;;;;;;18.49;79.59;101645.69;5053821;28;20017;-87
2022/07/21 03:58:21;;;;;;;3.78;2.97;;;;;;;18.52;78.86;101649.06;5054147;28;20028;-89
2022/07/21 04:00:46;;;;;;;3.30;2.90;;;;;;;18.52;78.92;101643.81;5054596;28;20036;-89
2022/07/21 04:03:12;;;;;;;3.23;2.70;;;;;;;18.54;79.06;101651.66;5057970;28;20024;-89
2022/07/21 04:05:39;;;;;;;2.90;2.50;;;;;;;18.53;78.84;101644.69;5056289;28;20025;-89
2022/07/21 04:08:05;;;;;;;2.60;2.40;;;;;;;18.56;79.13;101648.97;5054335;28;20422;-90
2022/07/21 04:10:33;;;;;;;8.02;4.70;;;;;;;18.53;79.74;101645.53;5054131;28;20017;-89
2022/07/21 04:13:00;;;;;;;6.57;4.13;;;;;;;18.52;80.78;101653.47;5054415;28;20029;-90
2022/07/21 04:15:26;;;;;;;7.63;4.72;;;;;;;18.51;81.88;101662.28;5054102;28;20477;-89
2022/07/21 04:17:52;;;;;;;7.00;4.17;;;;;;;18.48;79.93;101654.50;5053308;28;20055;-89
2022/07/21 04:20:18;;;;;;;;;;;;;;;18.47;80.78;101655.41;5054473;28;20079;-90
2022/07/21 04:22:45;;;;;;;5.28;3.78;;;;;;;18.46;80.24;101648.44;5053999;28;19952;-89
2022/07/21 04:25:11;;;;;;;5.43;4.07;;;;;;;18.46;81.08;101649.28;5053414;28;20067;-89
2022/07/21 04:27:37;;;;;;;5.40;3.78;;;;;;;18.45;80.42;101646.75;5053545;28;20053;-89
2022/07/21 04:30:06;;;;;;;8.23;4.60;;;;;;;18.43;81.51;101644.13;5052820;28;20028;-88
2022/07/21 04:32:32;;;;;;;6.80;4.45;;;;;;;18.40;80.09;101640.78;5053013;28;20021;-89
2022/07/21 04:34:57;;;;;;;12.33;6.60;;;;;;;18.36;81.72;101637.41;5052710;28;20079;-89
2022/07/21 04:37:23;;;;;;;9.03;5.10;;;;;;;18.35;82.55;101631.28;5053535;28;20021;-87
2022/07/21 04:39:48;;;;;;;7.67;4.60;;;;;;;18.36;80.67;101640.03;5053195;28;20017;-88
2022/07/21 04:42:14;;;;;;;5.70;4.00;;;;;;;18.37;80.32;101642.59;5053345;28;20032;-88
2022/07/21 04:44:39;;;;;;;10.33;5.03;;;;;;;18.37;82.73;101639.13;5051979;28;20028;-87
2022/07/21 04:47:05;;;;;;;6.10;4.00;;;;;;;18.35;80.66;101643.56;5052688;28;20025;-87
2022/07/21 04:49:30;;;;;;;7.80;4.20;;;;;;;18.32;79.87;101644.53;5053196;28;20051;-87
2022/07/21 04:51:55;;;;;;;7.83;4.43;;;;;;;18.30;82.61;101643.72;5052673;28;20032;-87
2022/07/21 04:54:21;;;;;;;6.17;4.17;;;;;;;18.26;81.99;101649.16;5053425;28;20036;-87
2022/07/21 04:56:46;;;;;;;6.33;4.33;;;;;;;18.24;83.88;101650.97;5053247;28;20029;-87
2022/07/21 04:59:12;;;;;;;6.70;4.00;;;;;;;18.21;84.30;101646.69;5052398;28;20105;-88
2022/07/21 05:01:38;;;;;;;5.07;3.65;;;;;;;18.19;81.24;101651.13;5053321;28;20032;-88
2022/07/21 05:04:05;;;;;;;6.20;3.77;;;;;;;18.18;81.44;101644.16;5053030;28;20476;-92
2022/07/21 05:06:30;;;;;;;4.93;3.28;;;;;;;18.17;80.54;101650.31;5052666;28;20272;-85
2022/07/21 05:08:55;;;;;;;4.07;3.13;;;;;;;18.21;80.73;101651.94;5051997;28;20492;-84
2022/07/21 05:11:21;;;;;;;3.40;3.07;;;;;;;18.27;81.50;101656.97;5052251;28;20451;-84
2022/07/21 05:13:46;;;;;;;2.93;2.63;;;;;;;18.29;80.67;101652.53;5051492;28;20036;-85
2022/07/21 05:16:11;;;;;;;3.80;2.50;;;;;;;18.34;83.18;101655.84;5051570;28;20021;-86
2022/07/21 05:18:37;;;;;;;3.20;2.50;;;;;;;18.34;80.27;101650.59;5052248;28;20493;-84
2022/07/21 05:21:03;;;;;;;2.73;2.50;;;;;;;18.35;81.30;101652.28;5051772;28;20075;-85
2022/07/21 05:23:28;;;;;;;2.60;2.35;;;;;;;18.39;80.50;101644.31;5051939;28;20108;-85
2022/07/21 05:25:53;;;;;;;3.27;2.70;;;;;;;18.40;81.87;101643.41;5051338;28;20128;-84
2022/07/21 05:28:19;;;;;;;3.00;2.60;;;;;;;18.39;81.10;101645.19;5051881;28;20040;-85
2022/07/21 05:30:44;;;;;;;2.77;2.40;;;;;;;18.42;82.14;101647.69;5052306;28;20120;-85
2022/07/21 05:33:09;;;;;;;2.80;2.40;;;;;;;18.44;81.45;101643.22;5052216;28;20033;-84
2022/07/21 05:35:34;;;;;;;3.87;2.90;;;;;;;18.45;83.34;101644.09;5051786;28;20095;-85
2022/07/21 05:38:00;;;;;;;2.97;2.63;;;;;;;18.42;81.42;101642.41;5051628;28;20029;-84
2022/07/21 05:40:25;;;;;;;5.53;3.80;;;;;;;18.41;83.17;101642.50;5052076;28;20147;-85
2022/07/21 05:42:51;;;;;;;6.17;3.70;;;;;;;18.40;83.37;101638.13;5052428;28;20078;-84
2022/07/21 05:45:16;;;;;;;4.20;3.10;;;;;;;18.40;82.75;101639.03;5056177;28;20473;-85
2022/07/21 05:47:42;;;;;;;5.33;3.20;;;;;;;18.39;81.33;101647.81;5056179;28;20491;-85
2022/07/21 05:50:09;;;;;;;3.00;2.70;;;;;;;18.37;81.31;101645.22;5054747;28;20507;-85
2022/07/21 05:52:34;;;;;;;2.88;2.58;;;;;;;18.40;81.49;101643.41;5055230;28;20100;-84
2022/07/21 05:55:00;;;;;;;2.73;2.50;;;;;;;18.39;82.01;101639.06;5055213;28;20116;-89
2022/07/21 05:57:25;;;;;;;3.00;2.70;;;;;;;18.42;82.93;101644.22;5056804;28;20384;-90
2022/07/21 05:59:51;;;;;;;3.50;2.47;;;;;;;18.43;80.77;101648.56;5056318;28;20079;-88
2022/07/21 06:02:16;;;;;;;3.63;2.60;;;;;;;18.48;79.81;101647.47;5051309;28;20029;-86
2022/07/21 06:04:41;;;;;;;3.20;2.70;;;;;;;18.49;81.44;101637.81;5056004;28;20388;-83
2022/07/21 06:07:07;;;;;;;2.60;2.40;;;;;;;18.51;80.58;101630.72;5055533;28;20056;-88
2022/07/21 06:09:32;;;;;;;2.50;2.30;;;;;;;18.56;81.44;101638.44;5055217;28;20068;-88
2022/07/21 06:11:58;;;;;;;2.50;2.30;;;;;;;18.59;82.14;101646.22;5055234;28;20025;-87
2022/07/21 06:14:23;;;;;;;2.90;2.60;;;;;;;18.61;82.63;101647.03;5055913;28;20025;-87
2022/07/21 06:16:49;;;;;;;2.73;2.40;;;;;;;18.62;80.89;101644.34;5054900;28;20017;-86
2022/07/21 06:19:14;;;;;;;3.00;2.40;;;;;;;18.68;81.61;101636.25;5055655;28;20068;-86
2022/07/21 06:21:42;;;;;;;3.73;2.63;;;;;;;18.75;81.32;101638.63;5055282;28;20029;-86
2022/07/21 06:24:08;;;;;;;6.30;3.78;;;;;;;18.88;81.16;101628.50;5053912;28;20116;-85
2022/07/21 06:26:34;;;;;;;11.93;6.33;;;;;;;19.00;82.93;101628.06;5055269;28;20529;-87
2022/07/21 06:28:59;;;;;;;11.93;6.60;;;;;;;19.13;82.17;101625.84;5054838;28;20028;-87
2022/07/21 06:31:25;;;;;;;12.60;6.80;;;;;;;19.33;81.58;101629.47;5054198;28;20104;-86
2022/07/21 06:33:50;;;;;;;13.23;6.87;;;;;;;19.61;83.96;101626.56;5054938;28;20033;-87
2022/07/21 06:36:15;;;;;;;10.80;6.13;;;;;;;19.93;83.04;101627.03;5055119;28;20021;-85
2022/07/21 06:38:41;;;;;;;13.77;6.93;;;;;;;20.24;81.19;101641.53;5054229;28;20460;-85
2022/07/21 06:41:07;;;;;;;17.63;9.45;;;;;;;20.20;78.92;101639.97;5054590;28;20025;-84
2022/07/21 06:43:33;;;;;;;19.27;10.70;;;;;;;20.08;80.06;101643.97;5054862;28;20465;-85
2022/07/21 06:45:58;;;;;;;20.13;10.77;;;;;;;19.96;79.77;101639.22;5054069;28;20138;-85
2022/07/21 06:48:24;;;;;;;16.67;9.17;;;;;;;19.86;79.79;101650.16;5041377;28;20105;-84
2022/07/21 06:50:50;;;;;;;14.65;7.95;;;;;;;19.84;80.27;101646.69;5033115;28;20021;-84
2022/07/21 06:53:16;;;;;;;14.95;8.02;;;;;;;19.80;81.00;101653.00;5031867;28;20029;-85
2022/07/21 06:55:44;;;;;;;16.73;8.87;;;;;;;19.76;80.12;101649.63;5034657;28;20036;-84
2022/07/21 06:58:12;;;;;;;18.30;9.77;;;;;;;19.78;81.02;101646.94;5033736;28;20120;-85
2022/07/21 07:00:38;;;;;;;15.27;8.07;;;;;;;19.78;81.00;101653.97;5034023;28;20022;-85
2022/07/21 07:03:04;;;;;;;14.05;7.38;;;;;;;19.81;78.95;101660.00;5033537;28;20025;-84
2022/07/21 07:05:30;;;;;;;13.70;6.73;;;;;;;19.86;79.49;101660.69;5033905;28;20076;-84
2022/07/21 07:07:56;;;;;;;13.13;6.90;;;;;;;19.95;80.83;101663.84;5034194;28;20273;-85
2022/07/21 07:10:21;;;;;;;16.50;9.07;;;;;;;19.93;79.48;101669.19;5034388;28;20039;-85
2022/07/21 07:12:46;;;;;;;13.77;8.10;;;;;;;19.86;80.62;101675.66;5043633;28;20065;-84
2022/07/21 07:15:11;;;;;;;17.93;9.53;;;;;;;19.76;80.43;101675.97;5053934;28;20526;-85
2022/07/21 07:17:37;;;;;;;13.23;7.87;;;;;;;19.69;80.91;101665.75;5046901;28;20064;-85
2022/07/21 07:20:05;;;;;;;13.80;7.30;;;;;;;19.67;81.06;101667.59;5033086;28;20358;-84
2022/07/21 07:22:30;;;;;;;14.43;7.63;;;;;;;19.68;79.96;101664.03;5032143;28;20025;-84
2022/07/21 07:24:56;;;;;;;18.33;10.17;;;;;;;19.54;80.71;101662.81;5033245;28;20474;-83
2022/07/21 07:27:21;;;;;;;18.27;9.57;;;;;;;19.51;81.57;101662.94;5032889;28;20025;-85
2022/07/21 07:29:46;;;;;;;18.60;10.00;;;;;;;19.44;82.11;101659.69;5034077;28;20026;-85
2022/07/21 07:32:12;;;;;;;19.43;11.00;;;;;;;19.40;81.72;101660.75;5033496;28;20075;-84
2022/07/21 07:34:37;;;;;;;18.67;9.93;;;;;;;19.38;81.19;101661.69;5034285;28;20057;-85
2022/07/21 07:37:02;;;;;;;13.00;7.07;;;;;;;19.35;80.74;101664.47;5033340;28;20083;-84
2022/07/21 07:39:28;;;;;;;13.00;7.07;;;;;;;19.31;82.72;101662.88;5033861;28;20033;-84
2022/07/21 07:41:55;;;;;;;16.83;8.53;;;;;;;19.24;82.83;101664.88;5033105;28;20099;-83
2022/07/21 07:44:20;;;;;;;17.95;9.50;;;;;;;19.17;83.50;101660.78;5033941;28;20048;-84
2022/07/21 07:46:46;;;;;;;14.97;8.07;;;;;;;19.11;82.67;101662.72;5033834;28;20469;-84
2022/07/21 07:49:11;;;;;;;16.77;8.70;;;;;;;19.08;84.15;101664.63;5032959;28;20025;-84
2022/07/21 07:51:36;;;;;;;13.63;7.80;;;;;;;19.03;82.77;101669.22;5033660;28;20033;-84
2022/07/21 07:54:03;;;;;;;11.27;6.60;;;;;;;19.03;83.36;101669.22;5038835;28;20078;-84
2022/07/21 07:56:29;;;;;;;15.07;8.20;;;;;;;18.99;85.54;101671.06;5053175;28;20439;-84
2022/07/21 07:58:54;;;;;;;12.23;6.83;;;;;;;18.95;84.22;101678.22;5053504;28;20017;-85
2022/07/21 08:01:19;;;;;;;9.47;5.53;;;;;;;18.94;84.86;101676.50;5053651;28;20052;-86
2022/07/21 08:03:45;;;;;;;7.37;4.70;;;;;;;18.94;84.00;101675.66;5052167;28;20032;-86
2022/07/21 08:06:10;;;;;;;11.50;6.30;;;;;;;18.92;85.91;101674.81;5052371;28;20023;-85
2022/07/21 08:08:36;;;;;;;10.07;5.13;;;;;;;18.87;84.96;101674.13;5052474;28;20381;-85
2022/07/21 08:11:01;;;;;;;9.70;5.30;;;;;;;18.83;85.01;101673.38;5052698;28;20064;-85
2022/07/21 08:13:27;;;;;;;7.60;4.77;;;;;;;18.76;87.35;101678.00;5053097;28;20103;-86
2022/07/21 08:15:52;;;;;;;8.57;4.90;;;;;;;18.67;85.55;101679.22;5052196;28;20039;-86
2022/07/21 08:18:18;;;;;;;5.93;3.97;;;;;;;18.62;84.77;101673.25;5052848;28;20045;-85
2022/07/21 08:20:44;;;;;;;6.47;4.40;;;;;;;18.55;86.33;101681.41;5053017;28;20024;-86
2022/07/21 08:23:11;;;;;;;5.72;3.88;;;;;;;18.51;85.92;101685.94;5051953;28;20060;-85
2022/07/21 08:25:36;;;;;;;4.32;3.30;;;;;;;18.48;86.82;101676.38;5052904;28;20458;-85
2022/07/21 08:28:02;;;;;;;5.37;3.90;;;;;;;18.47;85.30;101686.94;5052884;28;20025;-85
2022/07/21 08:30:27;;;;;;;4.40;3.30;;;;;;;18.46;86.19;101685.25;5052088;28;20150;-85
2022/07/21 08:32:52;;;;;;;5.67;3.57;;;;;;;18.48;88.17;101678.13;5052535;28;20029;-85
2022/07/21 08:35:18;;;;;;;3.90;3.20;;;;;;;18.48;86.58;101686.91;5052651;28;20040;-84
2022/07/21 08:37:53;;;;;;;4.83;3.83;;;;;;;18.46;87.83;101680.00;5051957;28;20029;-84
2022/07/21 08:40:22;;;;;;;4.95;3.90;;;;;;;18.44;87.14;101679.19;5052993;28;20032;-85
2022/07/21 08:42:48;;;;;;;5.35;3.80;;;;;;;18.43;88.22;101680.09;5052676;28;20025;-85
2022/07/21 08:45:14;;;;;;;6.95;4.15;;;;;;;18.40;88.75;101677.56;5051650;28;20036;-86
2022/07/21 08:47:40;;;;;;;4.57;3.50;;;;;;;18.42;88.10;101681.00;5052697;28;20492;-85
2022/07/21 08:50:08;;;;;;;3.90;3.15;;;;;;;18.45;88.27;101683.53;5052212;28;20025;-85
2022/07/21 08:52:33;;;;;;;3.92;3.10;;;;;;;18.48;89.02;101681.66;5051859;28;20110;-86
2022/07/21 08:54:59;;;;;;;4.40;3.30;;;;;;;18.49;89.09;101686.00;5047977;28;20052;-85
2022/07/21 08:57:24;;;;;;;4.05;3.20;;;;;;;18.50;90.27;101684.22;5052514;28;20354;-85
2022/07/21 08:59:49;;;;;;;5.27;3.70;;;;;;;18.50;88.00;101682.47;5051158;28;20032;-85
2022/07/21 09:02:33;;;;;;;4.33;3.40;;;;;;;18.51;89.92;101678.91;5052446;28;20036;-86
2022/07/21 09:04:59;;;;;;;3.78;3.20;;;;;;;18.53;88.99;101689.38;5051287;28;20040;-85
2022/07/21 09:07:25;;;;;;;3.75;3.20;;;;;;;18.54;89.79;101685.84;5050820;28;20048;-86
2022/07/21 09:09:59;;;;;;;5.05;3.70;;;;;;;18.53;89.82;101673.59;5051596;28;20033;-86
2022/07/21 09:12:26;;;;;;;4.53;3.47;;;;;;;18.53;87.70;101677.06;5051690;28;20174;-86
2022/07/21 09:14:52;;;;;;;4.07;3.28;;;;;;;18.56;89.63;101686.63;5032251;28;20382;-85
2022/07/21 09:17:18;;;;;;;6.23;3.83;;;;;;;18.56;89.12;101685.75;5053646;28;20045;-86
2022/07/21 09:19:46;;;;;;;4.80;3.63;;;;;;;18.58;89.08;101689.19;5055905;28;20032;-86
2022/07/21 09:22:16;;;;;;;3.97;3.47;;;;;;;18.62;89.53;101683.78;5056189;28;20036;-86
2022/07/21 09:24:48;;;;;;;3.65;3.00;;;;;;;18.64;88.80;101686.34;5056376;28;20028;-86
2022/07/21 09:27:15;;;;;;;3.13;2.83;;;;;;;18.63;88.70;101696.00;5055611;28;20028;-86
2022/07/21 09:29:48;;;;;;;3.10;2.80;;;;;;;18.66;89.52;101690.66;5055971;28;20421;-85
2022/07/21 09:32:24;;;;;;;3.60;3.00;;;;;;;18.70;89.55;101694.03;5056463;28;20025;-86
2022/07/21 09:34:52;;;;;;;3.00;2.70;;;;;;;18.73;89.26;101703.56;5055367;28;20029;-86
2022/07/21 09:37:20;;;;;;;4.75;3.53;;;;;;;18.76;91.07;101700.84;5055722;28;20470;-87
2022/07/21 09:39:54;;;;;;;3.60;3.20;;;;;;;18.78;90.41;101710.38;5055414;28;20036;-87
2022/07/21 09:42:24;;;;;;;3.05;2.80;;;;;;;18.82;89.87;101716.38;5055409;28;20410;-87
2022/07/21 09:44:53;;;;;;;2.70;2.50;;;;;;;18.85;90.05;101712.81;5056017;28;20025;-86
2022/07/21 09:47:21;;;;;;;2.85;2.60;;;;;;;18.85;89.26;101713.66;5055206;28;20033;-86
2022/07/21 09:49:46;;;;;;;2.50;2.30;;;;;;;18.85;89.00;101715.44;5054821;28;20068;-87
2022/07/21 09:52:24;;;;;;;2.23;2.03;;;;;;;18.91;89.59;101717.81;5064578;28;20276;-88
2022/07/21 09:54:51;;;;;;;2.20;2.00;;;;;;;18.93;88.61;101711.63;5064372;28;20057;-86
2022/07/21 09:57:17;;;;;;;3.20;2.10;;;;;;;18.96;89.66;101714.13;5055252;28;20151;-88
2022/07/21 09:59:45;;;;;;;2.00;1.90;;;;;;;19.01;87.95;101718.38;5055829;28;20032;-88
2022/07/21 10:02:28;;;;;;;2.60;2.40;;;;;;;19.00;88.45;101727.19;5054818;28;20025;-88
2022/07/21 10:05:09;;;;;;;2.50;2.30;;;;;;;19.01;88.16;101724.50;5055804;28;20037;-87
2022/07/21 10:07:41;;;;;;;2.17;2.00;;;;;;;19.04;87.79;101723.50;5056937;28;20092;-96
2022/07/21 10:10:07;;;;;;;2.30;2.10;;;;;;;19.04;88.34;101728.78;5055733;28;20021;-89
2022/07/21 10:12:33;;;;;;;2.10;2.00;;;;;;;19.05;88.88;101731.38;5055877;28;20017;-89
2022/07/21 10:14:58;;;;;;;2.00;1.90;;;;;;;19.05;88.66;101738.38;5055396;28;20064;-86
2022/07/21 10:17:25;;;;;;;1.70;1.60;;;;;;;19.02;88.13;101734.09;5054668;28;20130;-88
2022/07/21 10:20:14;;;;;;;1.70;1.60;;;;;;;19.06;87.52;101738.34;5055161;28;20044;-86
2022/07/21 10:22:57;;;;;;;1.75;1.65;;;;;;;19.06;87.22;101737.47;5055136;28;20032;-87
2022/07/21 10:25:24;;;;;;;1.75;1.65;;;;;;;19.09;87.99;101743.47;5054401;28;20044;-88
2022/07/21 10:28:11;;;;;;;2.50;2.30;;;;;;;19.11;87.92;101748.69;5056379;28;20025;-88
2022/07/21 10:30:45;;;;;;;2.15;1.92;;;;;;;19.14;87.21;101753.81;5055288;28;20067;-89
2022/07/21 10:33:15;;;;;;;1.80;1.70;;;;;;;19.20;87.35;101755.38;5055268;28;20540;-89
2022/07/21 10:35:43;;;;;;;1.92;1.83;;;;;;;19.18;87.20;101751.97;5054816;28;20525;-86
2022/07/21 10:38:24;;;;;;;1.80;1.58;;;;;;;19.13;87.66;101760.03;5053818;28;20059;-85
2022/07/21 10:40:50;;;;;;;2.38;2.03;;;;;;;19.05;87.90;101765.56;5053794;28;20124;-85
2022/07/21 10:43:15;;;;;;;2.10;2.00;;;;;;;18.96;87.65;101764.13;5054579;28;20108;-85
2022/07/21 10:45:45;;;;;;;2.43;1.90;;;;;;;18.90;87.30;101766.94;5054298;28;20041;-85
2022/07/21 10:48:39;;;;;;;1.90;1.80;;;;;;;18.90;86.92;101764.31;5054210;28;20079;-86
2022/07/21 10:51:16;;;;;;;2.88;2.30;;;;;;;18.95;87.67;101764.19;5054283;28;20033;-85
2022/07/21 10:53:44;;;;;;;3.03;2.35;;;;;;;18.97;86.91;101768.47;5055010;28;20033;-87
2022/07/21 10:56:26;;;;;;;2.70;2.30;;;;;;;19.00;88.03;101770.13;5054757;28;20549;-86
2022/07/21 10:58:51;;;;;;;3.20;2.38;;;;;;;19.00;87.17;101775.38;5053326;28;20029;-85
2022/07/21 11:01:25;;;;;;;2.20;2.00;;;;;;;19.02;87.30;101772.72;5054383;28;20036;-86
2022/07/21 11:04:11;;;;;;;6.90;3.72;;;;;;;18.96;87.06;101766.75;5054361;28;20021;-87
2022/07/21 11:06:38;;;;;;;3.40;2.80;;;;;;;19.00;87.10;101767.50;5053851;28;20037;-88
2022/07/21 11:09:03;;;;;;;3.25;2.70;;;;;;;19.05;87.18;101775.22;5054096;28;20470;-89
2022/07/21 11:11:31;;;;;;;2.90;2.50;;;;;;;19.10;86.56;101774.13;5054331;28;20040;-86
2022/07/21 11:14:20;;;;;;;2.83;2.58;;;;;;;19.15;87.41;101773.97;5054002;28;20029;-84
2022/07/21 11:16:56;;;;;;;2.63;2.33;;;;;;;19.16;86.29;101769.56;5054381;28;20059;-84
2022/07/21 11:19:40;;;;;;;;;;;;;;;19.15;86.15;101776.59;5053963;28;20040;-82
2022/07/21 11:22:20;;;;;;;2.88;2.50;;;;;;;19.09;85.76;101777.69;5054105;28;20292;-86
2022/07/21 11:24:48;;;;;;;2.50;2.30;;;;;;;19.05;85.76;101781.34;5058951;28;20029;-86
2022/07/21 11:27:17;;;;;;;4.07;2.70;;;;;;;18.97;86.11;101786.03;5059913;28;20024;-85